Time;durP1;ratioP1;P1;durP2;ratioP2;P2;SDS_P1;SDS_P2;PMS_P1;PMS_P2;Temp;Humidity;BMP_temperature;BMP_pressure;BME280_temperature;BME280_humidity;BME280_pressure;Samples;Min_cycle;Max_cycle;Signal;HPM_P1;HPM_P2
2021/05/25 00:00:11;;;;;;;7.45;4.05;;;;;;;10.69;88.24;100490.91;4975150;28;20042;-72
2021/05/25 00:02:41;;;;;;;7.07;3.28;;;;;;;10.71;88.11;100488.91;4959456;28;20038;-72
2021/05/25 00:05:09;;;;;;;9.70;3.67;;;;;;;10.72;88.28;100487.91;4975014;28;20042;-72
2021/05/25 00:07:35;;;;;;;8.13;3.60;;;;;;;10.75;88.25;100490.25;4974797;28;20034;-72
2021/05/25 00:10:00;;;;;;;9.15;3.63;;;;;;;10.70;88.03;100493.41;4974984;28;20034;-72
2021/05/25 00:12:25;;;;;;;6.87;3.30;;;;;;;10.73;88.35;100493.06;4958956;28;20046;-72
2021/05/25 00:14:51;;;;;;;7.63;3.30;;;;;;;10.70;88.54;100481.88;4974930;28;20045;-72
2021/05/25 00:17:16;;;;;;;10.13;4.37;;;;;;;10.70;88.37;100473.88;4974600;28;20034;-72
2021/05/25 00:19:42;;;;;;;12.13;4.00;;;;;;;10.71;88.44;100475.56;4974873;28;20046;-72
2021/05/25 00:22:07;;;;;;;6.80;3.90;;;;;;;10.69;88.83;100480.22;4974895;28;20034;-72
2021/05/25 00:24:34;;;;;;;5.87;3.80;;;;;;;10.69;88.88;100480.22;4974754;28;20038;-71
2021/05/25 00:26:59;;;;;;;9.45;4.18;;;;;;;10.70;89.16;100481.88;4991539;28;20030;-71
2021/05/25 00:29:24;;;;;;;7.73;3.67;;;;;;;10.69;88.79;100473.03;4991884;28;20465;-71
2021/05/25 00:31:50;;;;;;;11.57;5.00;;;;;;;10.69;89.01;100473.03;4958710;28;20418;-71
2021/05/25 00:34:15;;;;;;;7.85;4.30;;;;;;;10.68;88.90;100465.22;4991859;28;20042;-71
2021/05/25 00:36:41;;;;;;;8.13;3.97;;;;;;;10.69;89.10;100472.22;4974434;28;20088;-71
2021/05/25 00:39:07;;;;;;;10.73;4.23;;;;;;;10.61;88.51;100472.25;4974759;28;20038;-71
2021/05/25 00:41:33;;;;;;;6.65;4.18;;;;;;;10.32;89.45;100484.25;4991836;28;20037;-72
2021/05/25 00:43:58;;;;;;;8.38;4.78;;;;;;;10.24;90.04;100473.56;4991861;28;20474;-71
2021/05/25 00:46:23;;;;;;;9.33;3.87;;;;;;;10.31;90.70;100477.28;4991402;28;20042;-71
2021/05/25 00:48:49;;;;;;;7.33;4.70;;;;;;;10.44;90.66;100482.09;4974653;28;20029;-71
2021/05/25 00:51:14;;;;;;;14.27;5.47;;;;;;;10.53;90.35;100479.25;4974644;28;20463;-71
2021/05/25 00:53:40;;;;;;;11.37;5.10;;;;;;;10.52;90.04;100474.09;4991683;28;20034;-71
2021/05/25 00:56:05;;;;;;;6.83;4.33;;;;;;;10.30;89.75;100464.91;4974030;28;20034;-71
2021/05/25 00:58:34;;;;;;;8.85;4.15;;;;;;;10.22;90.44;100462.22;4991566;28;20046;-71
2021/05/25 01:00:59;;;;;;;7.82;4.07;;;;;;;10.30;90.80;100454.25;4974543;28;20034;-71
2021/05/25 01:03:25;;;;;;;6.97;4.82;;;;;;;10.29;90.37;100452.59;4974602;28;20065;-72
2021/05/25 01:05:50;;;;;;;6.33;4.07;;;;;;;10.35;91.12;100455.41;4974302;28;20038;-72
2021/05/25 01:08:16;;;;;;;5.50;4.38;;;;;;;10.34;90.57;100459.06;4974364;28;20071;-72
2021/05/25 01:10:50;;;;;;;10.10;4.65;;;;;;;10.17;90.93;100448.56;4991549;28;20069;-72
2021/05/25 01:13:21;;;;;;;11.95;6.18;;;;;;;10.17;91.58;100443.22;4991415;28;20092;-72
2021/05/25 01:15:48;;;;;;;9.77;5.00;;;;;;;10.04;91.45;100439.22;4991431;28;20042;-72
2021/05/25 01:18:14;;;;;;;8.90;5.47;;;;;;;10.06;91.89;100439.88;4991271;28;20073;-72
2021/05/25 01:20:41;;;;;;;;;;;;;;;10.11;92.06;100434.91;4991879;28;20114;-72
2021/05/25 01:23:08;;;;;;;7.93;5.53;;;;;;;10.18;92.05;100428.88;4991461;28;20484;-72
2021/05/25 01:25:34;;;;;;;9.18;5.45;;;;;;;10.22;92.22;100415.03;4991411;28;20057;-72
2021/05/25 01:28:04;;;;;;;8.90;6.00;;;;;;;10.24;92.39;100409.53;4973886;28;20042;-73
2021/05/25 01:30:34;;;;;;;10.48;6.07;;;;;;;10.11;91.61;100415.38;4958299;28;20049;-72
2021/05/25 01:33:01;;;;;;;20.35;6.88;;;;;;;10.15;91.97;100416.72;4991270;28;20104;-73
2021/05/25 01:35:28;;;;;;;11.75;5.57;;;;;;;10.11;92.14;100413.56;4991353;28;20197;-72
2021/05/25 01:37:55;;;;;;;10.20;6.15;;;;;;;10.04;92.62;100409.03;4992829;28;20038;-72
2021/05/25 01:40:21;;;;;;;8.88;6.30;;;;;;;10.14;92.49;100402.53;4977678;28;20444;-72
2021/05/25 01:42:47;;;;;;;12.00;7.87;;;;;;;9.96;92.14;100403.72;4961562;28;20045;-72
2021/05/25 01:45:16;;;;;;;11.27;6.70;;;;;;;9.90;92.73;100413.19;4994818;28;20034;-73
2021/05/25 01:47:41;;;;;;;6.88;5.70;;;;;;;9.94;93.09;100414.53;4994406;28;20022;-73
2021/05/25 01:50:14;;;;;;;13.20;6.27;;;;;;;9.83;93.37;100420.19;4994807;28;20053;-73
2021/05/25 01:52:51;;;;;;;12.63;6.75;;;;;;;9.95;93.42;100418.91;4994705;28;20460;-74
2021/05/25 01:55:36;;;;;;;10.50;6.97;;;;;;;9.84;93.32;100416.56;4977548;28;20046;-73
2021/05/25 01:58:08;;;;;;;15.00;8.07;;;;;;;9.90;93.40;100427.41;4977111;28;20038;-73
2021/05/25 02:00:34;;;;;;;11.50;7.25;;;;;;;9.85;93.47;100420.88;4994616;28;20467;-73
2021/05/25 02:02:59;;;;;;;12.15;7.40;;;;;;;9.79;93.91;100422.38;4977222;28;20061;-73
2021/05/25 02:05:25;;;;;;;10.40;7.88;;;;;;;9.77;94.01;100415.56;4994334;28;20360;-74
2021/05/25 02:07:52;;;;;;;12.60;8.38;;;;;;;9.72;93.90;100419.53;4960906;28;20494;-73
2021/05/25 02:10:26;;;;;;;13.52;8.45;;;;;;;9.68;94.02;100423.53;4977128;28;20038;-73
2021/05/25 02:12:55;;;;;;;12.93;8.38;;;;;;;9.69;94.24;100425.22;4994171;28;20038;-73
2021/05/25 02:15:21;;;;;;;15.27;8.70;;;;;;;9.69;94.41;100429.69;4977094;28;20041;-73
2021/05/25 02:17:46;;;;;;;13.90;8.47;;;;;;;9.71;94.60;100425.84;4993593;28;20030;-73
2021/05/25 02:20:12;;;;;;;16.63;9.50;;;;;;;9.80;94.32;100426.69;4961063;28;20038;-73
2021/05/25 02:22:37;;;;;;;15.33;9.03;;;;;;;9.90;94.25;100429.19;4977112;28;20064;-73
2021/05/25 02:25:04;;;;;;;15.77;9.27;;;;;;;9.90;94.29;100426.53;4977243;28;20462;-73
2021/05/25 02:27:30;;;;;;;18.60;12.48;;;;;;;9.80;94.00;100423.22;4960635;28;20117;-73
2021/05/25 02:29:55;;;;;;;22.13;12.87;;;;;;;9.82;93.92;100426.53;4994081;28;20424;-73
2021/05/25 02:32:20;;;;;;;20.70;14.13;;;;;;;9.78;94.16;100417.19;4993902;28;20038;-74
2021/05/25 02:34:46;;;;;;;18.77;12.73;;;;;;;9.73;94.14;100417.69;4976685;28;20042;-73
2021/05/25 02:37:11;;;;;;;26.33;15.47;;;;;;;9.68;94.08;100423.53;4993671;28;20096;-73
2021/05/25 02:39:36;;;;;;;21.73;14.40;;;;;;;9.77;94.55;100424.38;4976470;28;20471;-73
2021/05/25 02:42:03;;;;;;;24.57;15.43;;;;;;;9.81;94.37;100428.38;4976635;28;20030;-73
2021/05/25 02:44:29;;;;;;;18.88;15.13;;;;;;;9.81;94.32;100427.53;4992694;28;20034;-73
2021/05/25 02:46:54;;;;;;;22.63;15.00;;;;;;;9.85;94.25;100423.53;4976242;28;20046;-74
2021/05/25 02:49:19;;;;;;;25.20;17.00;;;;;;;9.73;94.38;100426.53;4993355;28;20056;-73
2021/05/25 02:51:45;;;;;;;25.77;16.43;;;;;;;9.78;94.39;100430.53;4976462;28;20376;-73
2021/05/25 02:54:10;;;;;;;29.37;17.77;;;;;;;9.80;94.75;100421.38;4960300;28;20375;-74
2021/05/25 02:56:35;;;;;;;24.97;15.23;;;;;;;9.87;94.54;100427.72;4993156;28;20439;-74
2021/05/25 02:59:01;;;;;;;21.73;15.00;;;;;;;9.87;94.46;100425.03;4993297;28;20061;-73
2021/05/25 03:01:26;;;;;;;27.30;14.83;;;;;;;9.87;94.41;100426.88;4976201;28;20037;-74
2021/05/25 03:03:51;;;;;;;24.13;16.43;;;;;;;9.85;94.50;100423.53;4960057;28;20165;-74
2021/05/25 03:06:17;;;;;;;29.17;17.67;;;;;;;9.86;94.50;100422.56;4993111;28;20068;-73
2021/05/25 03:08:42;;;;;;;23.27;16.70;;;;;;;9.93;94.64;100415.56;4976129;28;20026;-73
2021/05/25 03:11:07;;;;;;;26.67;17.07;;;;;;;9.88;94.53;100412.53;4993179;28;20451;-73
2021/05/25 03:13:33;;;;;;;30.63;18.07;;;;;;;9.92;94.45;100425.38;4976052;28;20122;-74
2021/05/25 03:15:59;;;;;;;28.33;17.77;;;;;;;9.91;94.56;100422.88;4975807;28;20045;-73
2021/05/25 03:18:24;;;;;;;28.57;17.20;;;;;;;9.82;94.72;100418.53;4992937;28;20046;-73
2021/05/25 03:20:50;;;;;;;29.60;17.30;;;;;;;9.84;94.95;100421.88;4992921;28;20026;-73
2021/05/25 03:23:16;;;;;;;27.30;15.60;;;;;;;9.83;94.91;100420.19;4975823;28;20125;-73
2021/05/25 03:25:42;;;;;;;24.30;14.90;;;;;;;9.87;94.83;100418.88;4975693;28;20133;-73
2021/05/25 03:28:08;;;;;;;25.45;14.95;;;;;;;9.82;94.69;100416.72;4992634;28;20329;-73
2021/05/25 03:30:33;;;;;;;27.83;13.87;;;;;;;9.88;94.60;100417.88;4992804;28;20093;-73
2021/05/25 03:32:59;;;;;;;18.50;12.37;;;;;;;9.89;94.30;100419.56;4959443;28;20084;-73
2021/05/25 03:35:26;;;;;;;26.08;14.35;;;;;;;9.92;94.24;100408.53;4992804;28;20352;-74
2021/05/25 03:37:52;;;;;;;20.50;13.25;;;;;;;9.98;94.37;100402.56;4975269;28;20129;-73
2021/05/25 03:40:18;;;;;;;16.42;11.32;;;;;;;9.99;93.81;100406.88;4992665;28;20213;-73
2021/05/25 03:42:45;;;;;;;15.60;10.50;;;;;;;9.97;93.81;100405.38;4992565;28;20038;-73
2021/05/25 03:45:11;;;;;;;14.15;9.98;;;;;;;9.97;93.53;100405.38;4992420;28;20038;-74
2021/05/25 03:47:37;;;;;;;13.45;9.52;;;;;;;9.97;93.46;100406.19;4992151;28;20038;-73
2021/05/25 03:50:07;;;;;;;12.32;8.70;;;;;;;9.97;93.38;100405.38;4992456;28;20042;-73
2021/05/25 03:52:37;;;;;;;13.38;9.10;;;;;;;10.00;93.10;100405.88;4975440;28;20034;-73
2021/05/25 03:55:08;;;;;;;9.38;7.20;;;;;;;10.02;92.59;100401.22;4975193;28;20364;-74
2021/05/25 03:59:59;;;;;;;11.33;8.13;;;;;;;10.04;91.88;100411.72;4991605;28;20042;-73
2021/05/25 04:02:24;;;;;;;10.33;7.23;;;;;;;10.19;92.01;100409.22;4992472;28;20467;-74
2021/05/25 04:04:50;;;;;;;13.63;7.23;;;;;;;10.08;91.64;100413.03;4975073;28;20116;-74
2021/05/25 04:07:15;;;;;;;5.77;4.00;;;;;;;10.14;91.80;100415.88;4958955;28;20034;-74
2021/05/25 04:09:40;;;;;;;9.50;6.03;;;;;;;10.17;91.40;100419.22;4975023;28;20080;-73
2021/05/25 04:12:06;;;;;;;9.00;6.67;;;;;;;10.20;91.22;100411.69;4975246;28;20722;-74
2021/05/25 04:14:32;;;;;;;9.27;6.10;;;;;;;10.25;91.01;100414.69;4974908;28;20049;-74
2021/05/25 04:16:58;;;;;;;7.97;5.50;;;;;;;10.14;90.86;100420.41;4991777;28;20034;-73
2021/05/25 04:19:23;;;;;;;8.70;5.03;;;;;;;10.33;90.68;100417.41;4974876;28;20045;-74
2021/05/25 04:21:49;;;;;;;6.13;4.33;;;;;;;10.34;89.85;100423.56;4975037;28;20053;-74
2021/05/25 04:24:16;;;;;;;6.80;4.50;;;;;;;10.34;89.10;100416.38;4992005;28;20042;-74
2021/05/25 04:26:41;;;;;;;7.68;4.15;;;;;;;10.33;89.10;100411.22;4974591;28;20045;-74
2021/05/25 04:29:07;;;;;;;4.90;3.60;;;;;;;10.27;88.95;100407.34;4974737;28;20042;-74
2021/05/25 04:31:32;;;;;;;6.82;3.88;;;;;;;10.29;88.70;100404.56;4991975;28;20038;-73
2021/05/25 04:33:57;;;;;;;6.27;3.17;;;;;;;10.29;88.71;100409.91;4991894;28;20046;-74
2021/05/25 04:36:23;;;;;;;5.53;3.20;;;;;;;10.10;89.36;100419.88;4958532;28;20181;-73
2021/05/25 04:38:48;;;;;;;6.50;3.73;;;;;;;10.19;89.32;100415.38;4974770;28;20133;-74
2021/05/25 04:41:14;;;;;;;5.90;4.00;;;;;;;10.19;88.84;100414.56;4991931;28;20109;-74
2021/05/25 04:43:39;;;;;;;5.83;3.90;;;;;;;10.23;88.79;100423.88;4991727;28;20463;-74
2021/05/25 04:46:04;;;;;;;4.80;3.43;;;;;;;10.30;88.77;100416.88;4974519;28;20435;-74
2021/05/25 04:48:30;;;;;;;7.27;4.13;;;;;;;10.47;88.47;100418.53;4991745;28;20141;-74
2021/05/25 04:50:55;;;;;;;4.23;2.90;;;;;;;10.48;87.80;100417.53;4991739;28;20034;-74
2021/05/25 04:53:21;;;;;;;7.53;4.45;;;;;;;10.35;88.07;100419.91;4991862;28;20129;-74
2021/05/25 04:55:46;;;;;;;4.50;3.00;;;;;;;10.34;88.32;100419.03;4991666;28;20081;-74
2021/05/25 04:58:12;;;;;;;7.73;3.43;;;;;;;10.38;88.09;100424.91;4974183;28;20046;-74
2021/05/25 05:00:37;;;;;;;4.47;4.00;;;;;;;10.27;88.57;100427.88;4974506;28;20070;-74
2021/05/25 05:03:03;;;;;;;7.35;3.95;;;;;;;10.26;88.63;100434.22;4991662;28;20058;-74
2021/05/25 05:05:28;;;;;;;5.85;3.85;;;;;;;10.10;89.31;100424.38;4958482;28;20045;-73
2021/05/25 05:07:54;;;;;;;5.10;3.17;;;;;;;10.11;89.86;100428.72;4974321;28;20030;-74
2021/05/25 05:10:20;;;;;;;6.43;4.33;;;;;;;10.18;89.44;100436.88;4958456;28;20038;-75
2021/05/25 05:12:46;;;;;;;5.28;4.05;;;;;;;10.27;88.69;100433.22;4976080;28;20758;-74
2021/05/25 05:15:15;;;;;;;6.85;4.03;;;;;;;10.56;88.33;100436.22;4995458;28;20125;-74
2021/05/25 05:17:42;;;;;;;6.55;4.05;;;;;;;10.68;87.11;100431.34;4961626;28;20038;-74
2021/05/25 05:20:09;;;;;;;5.68;4.22;;;;;;;10.63;86.56;100432.84;4978238;28;20108;-74
2021/05/25 05:22:35;;;;;;;5.10;3.88;;;;;;;10.71;87.06;100428.31;4995233;28;20038;-74
2021/05/25 05:25:01;;;;;;;5.45;4.43;;;;;;;10.85;85.00;100431.28;4977957;28;20065;-75
2021/05/25 05:27:26;;;;;;;5.77;4.23;;;;;;;10.87;85.56;100435.47;4977627;28;20644;-75
2021/05/25 05:29:52;;;;;;;6.80;4.50;;;;;;;10.79;86.05;100432.78;4995066;28;20046;-74
2021/05/25 05:32:18;;;;;;;7.07;5.60;;;;;;;10.78;85.28;100429.31;4977780;28;20030;-74
2021/05/25 05:34:43;;;;;;;6.10;5.50;;;;;;;10.67;85.37;100423.50;4977603;28;20086;-75
2021/05/25 05:37:09;;;;;;;6.10;5.03;;;;;;;11.43;82.74;100430.03;4994715;28;20125;-74
2021/05/25 05:39:34;;;;;;;9.57;5.30;;;;;;;11.47;81.61;100425.16;4994966;28;20030;-75
2021/05/25 05:42:00;;;;;;;5.57;4.93;;;;;;;11.54;82.52;100434.13;4994724;28;20377;-74
2021/05/25 05:44:25;;;;;;;6.97;5.40;;;;;;;11.18;82.26;100435.50;4977782;28;20478;-75
2021/05/25 05:46:51;;;;;;;18.73;6.13;;;;;;;11.20;83.36;100435.34;4994576;28;20129;-75
2021/05/25 05:49:16;;;;;;;7.43;6.50;;;;;;;11.18;83.17;100442.69;4977750;28;20035;-75
2021/05/25 05:51:42;;;;;;;7.87;6.43;;;;;;;10.83;84.12;100442.16;4977654;28;20074;-76
2021/05/25 05:54:08;;;;;;;6.80;6.10;;;;;;;10.86;83.59;100443.63;4994886;28;20444;-76
2021/05/25 05:56:33;;;;;;;9.80;7.65;;;;;;;10.76;84.33;100446.50;4977195;28;20042;-77
2021/05/25 05:58:59;;;;;;;9.27;7.25;;;;;;;10.56;83.29;100443.41;4994935;28;20041;-77
2021/05/25 06:01:24;;;;;;;11.10;7.67;;;;;;;10.44;83.32;100447.38;4978922;28;20042;-78
2021/05/25 06:03:49;;;;;;;9.30;7.10;;;;;;;10.24;84.52;100454.91;4979971;28;20046;-79
2021/05/25 06:06:15;;;;;;;11.17;7.03;;;;;;;10.19;84.02;100449.25;4996513;28;20034;-77
2021/05/25 06:08:41;;;;;;;8.80;7.10;;;;;;;10.14;84.25;100445.22;4962993;28;20081;-78
2021/05/25 06:11:07;;;;;;;7.95;6.72;;;;;;;10.19;83.09;100435.91;4995063;28;20073;-77
2021/05/25 06:13:32;;;;;;;5.53;4.93;;;;;;;10.49;82.17;100443.22;4978065;28;20045;-78
2021/05/25 06:16:01;;;;;;;5.90;5.23;;;;;;;10.98;79.74;100443.09;4994367;28;20031;-78
2021/05/25 06:18:28;;;;;;;4.88;4.35;;;;;;;11.10;78.68;100451.56;4994693;28;20405;-78
2021/05/25 06:20:53;;;;;;;8.50;4.45;;;;;;;11.01;78.37;100451.78;4977339;28;20076;-78
2021/05/25 06:23:18;;;;;;;4.10;3.60;;;;;;;10.83;78.44;100455.50;4976594;28;20034;-77
2021/05/25 06:25:45;;;;;;;3.23;2.90;;;;;;;10.62;78.98;100455.22;4977035;28;20173;-78
2021/05/25 06:28:10;;;;;;;3.45;3.15;;;;;;;10.41;78.51;100461.91;4994307;28;20037;-78
2021/05/25 06:30:37;;;;;;;3.73;3.07;;;;;;;10.49;77.97;100469.94;4959769;28;20043;-77
2021/05/25 06:33:03;;;;;;;3.72;2.30;;;;;;;10.53;76.81;100470.41;4974826;28;20045;-78
2021/05/25 06:35:28;;;;;;;3.03;2.50;;;;;;;10.75;77.59;100463.53;4991838;28;20042;-78
2021/05/25 06:37:53;;;;;;;3.07;2.20;;;;;;;10.78;76.49;100458.69;4974286;28;20067;-77
2021/05/25 06:40:19;;;;;;;5.60;2.70;;;;;;;10.83;76.66;100470.69;4991461;28;20038;-78
2021/05/25 06:42:44;;;;;;;2.80;2.00;;;;;;;10.82;76.85;100471.72;4974531;28;20045;-77
2021/05/25 06:45:11;;;;;;;2.30;1.97;;;;;;;10.53;77.04;100473.91;4991604;28;20490;-77
2021/05/25 06:47:36;;;;;;;;;;;;;;;10.52;76.66;100469.56;4976172;28;20038;-77
2021/05/25 06:50:03;;;;;;;;;;;;;;;10.28;78.17;100470.44;4993579;28;20270;-77
2021/05/25 06:52:28;;;;;;;4.32;3.00;;;;;;;10.59;77.42;100463.56;4993178;28;19913;-78
2021/05/25 06:54:54;;;;;;;5.30;3.27;;;;;;;10.47;78.00;100474.59;4992955;28;20046;-77
2021/05/25 06:57:19;;;;;;;5.30;3.67;;;;;;;10.25;77.45;100477.91;4975679;28;20046;-78
2021/05/25 06:59:44;;;;;;;3.47;3.17;;;;;;;10.23;78.91;100483.41;4975727;28;20045;-77
2021/05/25 07:02:10;;;;;;;3.87;3.00;;;;;;;10.28;78.94;100488.25;4975854;28;20045;-77
2021/05/25 07:04:35;;;;;;;6.93;3.50;;;;;;;10.31;79.62;100487.94;4992801;28;20107;-77
2021/05/25 07:07:01;;;;;;;7.53;3.93;;;;;;;10.23;80.07;100487.91;4975697;28;20376;-76
2021/05/25 07:09:26;;;;;;;5.53;4.13;;;;;;;9.94;81.28;100497.22;4992633;28;20031;-76
2021/05/25 07:11:51;;;;;;;7.20;4.40;;;;;;;9.82;81.99;100487.88;4992683;28;20042;-75
2021/05/25 07:14:17;;;;;;;4.73;4.17;;;;;;;9.81;82.91;100496.84;4959444;28;20044;-76
2021/05/25 07:16:42;;;;;;;4.53;3.70;;;;;;;9.73;82.49;100498.50;4992208;28;20042;-76
2021/05/25 07:19:07;;;;;;;4.30;3.70;;;;;;;9.84;82.17;100499.22;4975582;28;20049;-76
2021/05/25 07:21:33;;;;;;;3.37;3.07;;;;;;;9.89;80.67;100496.88;4992609;28;20038;-76
2021/05/25 07:23:58;;;;;;;4.33;3.37;;;;;;;10.07;79.71;100488.75;4992339;28;20032;-76
2021/05/25 07:26:24;;;;;;;5.33;2.43;;;;;;;10.21;79.11;100503.22;4975030;28;20053;-76
2021/05/25 07:28:51;;;;;;;4.05;2.25;;;;;;;9.98;79.68;100509.22;4992522;28;20047;-76
2021/05/25 07:31:18;;;;;;;2.65;2.38;;;;;;;9.97;78.28;100507.53;4975211;28;20386;-77
2021/05/25 07:33:44;;;;;;;2.40;2.03;;;;;;;10.20;78.67;100509.59;4975193;28;20112;-77
2021/05/25 07:36:09;;;;;;;2.53;2.05;;;;;;;10.47;76.76;100509.28;4974051;28;20455;-77
2021/05/25 07:38:34;;;;;;;2.77;1.90;;;;;;;11.25;75.68;100504.28;4974931;28;20038;-77
2021/05/25 07:41:00;;;;;;;1.90;1.70;;;;;;;11.66;72.43;100494.25;4992105;28;20041;-77
2021/05/25 07:43:25;;;;;;;2.23;1.43;;;;;;;12.06;70.95;100502.19;4975156;28;20383;-77
2021/05/25 07:45:51;;;;;;;1.70;1.00;;;;;;;11.93;69.73;100502.81;4974973;28;20026;-77
2021/05/25 07:48:16;;;;;;;5.53;1.27;;;;;;;11.31;71.36;100506.28;4975055;28;20054;-77
2021/05/25 07:50:42;;;;;;;1.33;1.10;;;;;;;11.26;71.48;100509.47;4991901;28;20038;-77
2021/05/25 07:53:07;;;;;;;1.23;0.90;;;;;;;11.61;70.23;100499.25;4974728;28;20742;-76
2021/05/25 07:55:33;;;;;;;2.67;1.17;;;;;;;11.19;71.50;100503.97;4991726;28;20451;-77
2021/05/25 07:57:59;;;;;;;1.10;1.00;;;;;;;12.29;71.24;100504.88;4974650;28;20061;-76
2021/05/25 08:00:26;;;;;;;2.75;0.88;;;;;;;13.14;69.36;100503.75;4974894;28;20034;-76
2021/05/25 08:02:52;;;;;;;1.85;1.17;;;;;;;13.39;67.08;100506.97;4974806;28;20103;-76
2021/05/25 08:05:18;;;;;;;2.67;1.23;;;;;;;13.66;65.49;100508.16;4975027;28;20042;-76
2021/05/25 08:07:44;;;;;;;1.00;0.90;;;;;;;13.94;65.11;100511.75;4974805;28;20066;-76
2021/05/25 08:10:11;;;;;;;1.85;1.00;;;;;;;14.05;61.59;100512.31;4992266;28;20081;-76
2021/05/25 08:12:37;;;;;;;1.85;1.23;;;;;;;13.27;62.48;100511.94;4975192;28;20050;-76
2021/05/25 08:15:06;;;;;;;1.47;1.37;;;;;;;12.52;66.69;100516.41;4975068;28;20038;-76
2021/05/25 08:20:04;;;;;;;1.35;1.23;;;;;;;12.35;66.30;100520.22;4992017;28;20034;-76
2021/05/25 08:22:30;;;;;;;1.10;1.00;;;;;;;11.74;67.19;100507.56;4991985;28;20039;-75
2021/05/25 08:24:56;;;;;;;1.77;1.20;;;;;;;11.38;66.56;100524.13;4974947;28;20041;-76
2021/05/25 08:27:21;;;;;;;2.55;1.20;;;;;;;11.47;66.88;100521.41;4958279;28;20073;-75
2021/05/25 08:29:47;;;;;;;2.60;1.57;;;;;;;11.56;66.97;100520.34;4992030;28;20054;-76
2021/05/25 08:32:12;;;;;;;1.30;1.20;;;;;;;11.56;68.80;100515.00;4974877;28;20452;-76
2021/05/25 08:34:37;;;;;;;1.53;1.20;;;;;;;11.62;67.25;100525.00;4991898;28;20038;-76
2021/05/25 08:37:03;;;;;;;2.80;1.23;;;;;;;11.69;67.29;100517.97;4991024;28;20049;-76
2021/05/25 08:39:28;;;;;;;1.53;1.40;;;;;;;11.76;67.47;100521.59;4974494;28;20050;-76
2021/05/25 08:41:53;;;;;;;1.47;1.37;;;;;;;11.63;67.39;100521.31;4974752;28;20039;-76
2021/05/25 08:44:18;;;;;;;2.37;1.43;;;;;;;11.53;69.64;100515.38;4974527;28;20133;-76
2021/05/25 08:46:47;;;;;;;1.37;1.03;;;;;;;12.04;67.01;100527.31;4993252;28;20045;-76
2021/05/25 08:49:14;;;;;;;4.10;1.55;;;;;;;11.59;67.44;100530.72;4978568;28;20080;-76
2021/05/25 08:51:39;;;;;;;3.90;1.67;;;;;;;11.35;68.98;100540.47;4995702;28;20035;-75
2021/05/25 08:54:06;;;;;;;2.33;2.00;;;;;;;10.79;74.43;100555.63;4995521;28;20081;-74
2021/05/25 08:56:32;;;;;;;3.70;2.30;;;;;;;10.52;77.42;100543.50;4995553;28;20038;-73
2021/05/25 08:58:57;;;;;;;2.07;1.50;;;;;;;10.26;78.07;100546.28;4995582;28;20053;-72
2021/05/25 09:01:23;;;;;;;3.80;2.33;;;;;;;10.01;80.53;100548.91;4978383;28;20094;-72
2021/05/25 09:04:10;;;;;;;3.27;2.03;;;;;;;10.11;80.81;100544.28;4995676;28;20038;-72
2021/05/25 09:06:47;;;;;;;5.70;2.40;;;;;;;10.10;80.92;100534.59;4978298;28;20097;-73
2021/05/25 09:09:15;;;;;;;2.97;2.67;;;;;;;10.14;81.46;100545.78;4995131;28;20030;-73
2021/05/25 09:12:05;;;;;;;3.58;3.25;;;;;;;10.26;82.30;100549.78;4960733;28;20149;-73
2021/05/25 09:14:35;;;;;;;4.35;3.13;;;;;;;10.07;82.29;100540.25;4993637;28;20515;-73
2021/05/25 09:17:22;;;;;;;3.33;2.90;;;;;;;10.34;80.75;100543.63;4976274;28;20423;-73
2021/05/25 09:19:50;;;;;;;4.55;3.05;;;;;;;10.60;81.43;100542.66;4960399;28;20030;-74
2021/05/25 09:22:24;;;;;;;3.88;2.70;;;;;;;10.62;82.68;100544.13;4993700;28;20093;-73
2021/05/25 09:24:49;;;;;;;3.35;3.00;;;;;;;10.69;80.15;100539.78;4993823;28;20038;-73
2021/05/25 09:27:29;;;;;;;4.13;3.50;;;;;;;10.74;80.82;100549.97;4994864;28;20041;-73
2021/05/25 09:30:09;;;;;;;4.10;3.20;;;;;;;10.14;79.97;100541.25;4977863;28;20364;-73
2021/05/25 09:32:39;;;;;;;6.72;3.70;;;;;;;10.20;81.85;100541.59;4978111;28;20054;-73
2021/05/25 09:35:06;;;;;;;4.10;3.33;;;;;;;10.67;80.80;100543.63;4961778;28;20058;-73
2021/05/25 09:37:41;;;;;;;6.43;3.58;;;;;;;10.95;81.12;100541.44;4994677;28;20379;-73
2021/05/25 09:40:07;;;;;;;3.55;3.25;;;;;;;12.54;77.20;100545.69;4977759;28;20061;-73
2021/05/25 09:42:32;;;;;;;6.05;2.90;;;;;;;12.18;73.76;100543.63;4977759;28;20116;-73
2021/05/25 09:45:04;;;;;;;6.63;3.83;;;;;;;11.79;74.61;100542.63;4977846;28;20118;-73
2021/05/25 09:47:38;;;;;;;4.32;3.55;;;;;;;11.80;76.91;100549.66;4994609;28;20371;-73
2021/05/25 09:50:05;;;;;;;4.88;3.00;;;;;;;12.22;73.61;100545.75;4994595;28;20046;-72
2021/05/25 09:52:31;;;;;;;3.60;2.83;;;;;;;12.83;73.18;100539.53;4994718;28;20046;-73
2021/05/25 09:55:08;;;;;;;3.50;3.00;;;;;;;12.33;71.75;100528.44;4977065;28;20057;-73
2021/05/25 09:57:41;;;;;;;3.08;2.78;;;;;;;12.71;74.42;100528.44;4993490;28;20042;-73
2021/05/25 10:00:30;;;;;;;3.90;3.08;;;;;;;12.62;71.79;100522.34;4961323;28;20440;-72
2021/05/25 10:03:24;;;;;;;4.65;3.22;;;;;;;12.18;70.47;100533.75;4977528;28;20811;-72
2021/05/25 10:05:54;;;;;;;2.95;2.35;;;;;;;12.47;70.33;100526.81;4974174;28;20519;-73
2021/05/25 10:08:22;;;;;;;3.78;2.50;;;;;;;13.28;67.82;100527.06;4977190;28;20125;-73
2021/05/25 10:10:49;;;;;;;2.55;2.30;;;;;;;14.29;65.63;100528.00;4977025;28;20559;-72
2021/05/25 10:13:14;;;;;;;2.63;2.42;;;;;;;13.12;65.17;100536.09;4977170;28;20040;-73
2021/05/25 10:15:48;;;;;;;2.83;2.07;;;;;;;12.42;69.58;100546.09;4994159;28;20125;-73
2021/05/25 10:21:22;;;;;;;1.50;1.00;;;;;;;11.23;70.93;100557.06;4994222;28;20125;-73
2021/05/25 10:23:47;;;;;;;0.95;0.95;;;;;;;11.23;72.87;100547.22;4990174;28;20050;-73
2021/05/25 10:26:20;;;;;;;1.60;1.20;;;;;;;11.24;71.88;100548.91;4976779;28;20042;-74
2021/05/25 10:28:47;;;;;;;1.88;1.27;;;;;;;11.19;72.23;100557.44;4976927;28;20030;-74
2021/05/25 10:31:36;;;;;;;1.25;1.08;;;;;;;11.15;72.13;100549.91;4994017;28;20030;-73
2021/05/25 10:34:22;;;;;;;5.38;1.58;;;;;;;11.24;72.55;100567.59;4960540;28;20341;-73
2021/05/25 10:36:55;;;;;;;2.25;1.33;;;;;;;11.33;72.27;100563.03;4976579;28;20046;-73
2021/05/25 10:39:42;;;;;;;2.45;1.55;;;;;;;11.33;71.68;100561.22;4993816;28;20049;-73
2021/05/25 10:42:20;;;;;;;1.42;1.10;;;;;;;11.69;70.73;100558.06;4976411;28;20165;-73
2021/05/25 10:44:57;;;;;;;2.03;1.65;;;;;;;11.82;71.55;100558.34;4976607;28;20046;-73
2021/05/25 10:47:37;;;;;;;1.40;1.25;;;;;;;12.16;70.32;100554.50;4993434;28;20038;-73
2021/05/25 10:50:25;;;;;;;1.40;1.30;;;;;;;12.35;67.72;100547.00;4993607;28;20479;-73
2021/05/25 10:52:53;;;;;;;2.60;1.83;;;;;;;12.35;68.32;100542.47;4976652;28;20049;-74
2021/05/25 10:55:45;;;;;;;3.03;1.45;;;;;;;12.48;67.66;100557.97;4993612;28;20022;-74
2021/05/25 10:58:30;;;;;;;2.03;1.60;;;;;;;12.32;67.44;100552.72;4957184;28;20061;-75
2021/05/25 11:00:57;;;;;;;1.80;1.70;;;;;;;11.94;66.73;100556.16;4976233;28;20045;-76
2021/05/25 11:03:23;;;;;;;1.52;1.17;;;;;;;12.00;67.89;100570.66;4976334;28;20367;-76
2021/05/25 11:05:52;;;;;;;1.70;1.37;;;;;;;11.87;66.71;100555.19;4975969;28;20146;-76
2021/05/25 11:08:18;;;;;;;3.33;1.38;;;;;;;12.41;66.44;100565.03;4993262;28;20034;-77
2021/05/25 11:11:00;;;;;;;1.75;1.40;;;;;;;12.30;66.15;100566.28;4992977;28;20030;-77
2021/05/25 11:13:30;;;;;;;1.67;1.45;;;;;;;12.02;66.80;100568.63;4993184;28;20038;-76
2021/05/25 11:16:11;;;;;;;1.40;1.27;;;;;;;12.54;65.54;100559.91;4975672;28;20042;-77
2021/05/25 11:21:13;;;;;;;5.43;1.42;;;;;;;13.26;63.43;100550.50;4974289;28;20042;-76
2021/05/25 11:23:44;;;;;;;1.73;1.25;;;;;;;13.79;62.33;100543.19;4992815;28;20041;-76
2021/05/25 11:26:48;;;;;;;3.08;0.85;;;;;;;14.61;59.50;100557.25;4975458;28;20399;-76
2021/05/25 11:29:19;;;;;;;1.50;1.10;;;;;;;13.83;58.15;100560.56;4975170;28;20034;-77
2021/05/25 11:31:44;;;;;;;1.90;1.10;;;;;;;13.93;58.89;100554.91;4975220;28;20056;-76
2021/05/25 11:34:10;;;;;;;4.35;1.08;;;;;;;14.41;60.13;100557.88;4974942;28;20084;-76
2021/05/25 11:36:35;;;;;;;1.00;0.90;;;;;;;14.09;57.65;100552.00;4992016;28;20424;-76